createdAt,value
2022-12-26T00:01:45.621Z,100.00
2022-12-26T00:04:49.706Z,100.00
2022-12-26T00:06:58.585Z,100.00
2022-12-26T00:09:25.038Z,100.00
2022-12-26T00:11:51.509Z,100.00
2022-12-26T00:14:18.048Z,100.00
2022-12-26T00:16:45.117Z,100.00
2022-12-26T00:19:11.875Z,100.00
2022-12-26T00:21:38.692Z,100.00
2022-12-26T00:24:05.350Z,100.00
2022-12-26T00:26:33.023Z,100.00
2022-12-26T00:28:59.602Z,100.00
2022-12-26T00:31:28.066Z,100.00
2022-12-26T00:33:54.736Z,100.00
2022-12-26T00:36:23.476Z,100.00
2022-12-26T00:38:50.671Z,100.00
2022-12-26T00:41:17.738Z,100.00
2022-12-26T00:43:44.523Z,100.00
2022-12-26T00:46:11.147Z,100.00
2022-12-26T00:48:37.851Z,100.00
2022-12-26T00:51:05.025Z,100.00
2022-12-26T00:53:31.613Z,100.00
2022-12-26T00:55:58.061Z,100.00
2022-12-26T00:58:25.011Z,100.00
2022-12-26T01:00:51.749Z,100.00
2022-12-26T01:03:18.533Z,100.00
2022-12-26T01:05:46.468Z,100.00
2022-12-26T01:08:19.675Z,100.00
2022-12-26T01:10:50.423Z,100.00
2022-12-26T01:13:16.920Z,100.00
2022-12-26T01:15:50.742Z,100.00
2022-12-26T01:18:17.709Z,100.00
2022-12-26T01:20:44.171Z,100.00
2022-12-26T01:23:10.678Z,100.00
2022-12-26T01:25:37.171Z,100.00
2022-12-26T01:28:23.721Z,100.00
2022-12-26T01:30:50.236Z,100.00
2022-12-26T01:33:16.736Z,100.00
2022-12-26T01:35:53.211Z,100.00
2022-12-26T01:38:20.431Z,100.00
2022-12-26T01:40:47.575Z,100.00
2022-12-26T01:43:14.793Z,100.00
2022-12-26T01:45:42.793Z,100.00
2022-12-26T01:48:19.465Z,100.00
2022-12-26T01:50:48.711Z,100.00
2022-12-26T01:53:15.285Z,100.00
2022-12-26T01:55:43.725Z,100.00
2022-12-26T01:58:17.440Z,100.00
2022-12-26T02:00:44.364Z,100.00
2022-12-26T02:03:43.729Z,100.00
2022-12-26T02:06:11.568Z,100.00
2022-12-26T02:08:39.421Z,100.00
2022-12-26T02:11:27.832Z,100.00
2022-12-26T02:13:54.819Z,100.00
2022-12-26T02:16:21.907Z,100.00
2022-12-26T02:18:48.382Z,100.00
2022-12-26T02:21:17.814Z,100.00
2022-12-26T02:24:03.380Z,100.00
2022-12-26T02:26:41.291Z,100.00
2022-12-26T02:29:11.036Z,100.00
2022-12-26T02:31:46.918Z,100.00
2022-12-26T02:34:20.208Z,100.00
2022-12-26T02:37:02.096Z,100.00
2022-12-26T02:39:46.734Z,100.00
2022-12-26T02:42:13.379Z,100.00
2022-12-26T02:44:58.298Z,100.00
2022-12-26T02:47:24.739Z,100.00
2022-12-26T02:50:33.113Z,100.00
2022-12-26T02:53:18.023Z,100.00
2022-12-26T02:56:05.140Z,100.00
2022-12-26T02:58:57.686Z,100.00
2022-12-26T03:01:58.068Z,100.00
2022-12-26T03:04:45.348Z,100.00
2022-12-26T03:07:34.408Z,100.00
2022-12-26T03:10:22.137Z,100.00
2022-12-26T03:13:13.279Z,100.00
2022-12-26T03:16:04.502Z,100.00
2022-12-26T03:18:57.557Z,100.00
2022-12-26T03:21:21.600Z,100.00
2022-12-26T03:23:49.467Z,100.00
2022-12-26T03:26:37.953Z,100.00
2022-12-26T03:29:23.216Z,100.00
2022-12-26T03:31:49.858Z,100.00
2022-12-26T03:34:19.417Z,100.00
2022-12-26T03:36:58.218Z,100.00
2022-12-26T03:39:55.702Z,100.00
2022-12-26T03:42:43.770Z,100.00
2022-12-26T03:45:39.205Z,100.00
2022-12-26T03:48:26.904Z,100.00
2022-12-26T03:51:17.186Z,100.00
2022-12-26T03:54:07.434Z,100.00
2022-12-26T03:56:54.377Z,100.00
2022-12-26T03:59:44.789Z,100.00
2022-12-26T04:02:31.329Z,100.00
2022-12-26T04:05:18.871Z,100.00
2022-12-26T04:08:11.079Z,100.00
2022-12-26T04:11:01.603Z,100.00
2022-12-26T04:14:01.894Z,100.00
2022-12-26T04:16:59.226Z,100.00
2022-12-26T04:19:25.722Z,100.00
2022-12-26T04:22:21.477Z,100.00
2022-12-26T04:25:20.498Z,100.00
2022-12-26T04:28:25.608Z,100.00
2022-12-26T04:31:17.637Z,100.00
2022-12-26T04:34:06.943Z,100.00
2022-12-26T04:36:55.322Z,100.00
2022-12-26T04:39:43.238Z,100.00
2022-12-26T04:42:28.728Z,100.00
2022-12-26T04:44:55.402Z,100.00
2022-12-26T04:47:21.901Z,100.00
2022-12-26T04:50:07.049Z,100.00
2022-12-26T04:52:51.965Z,100.00
2022-12-26T04:55:18.588Z,100.00
2022-12-26T04:57:45.064Z,100.00
2022-12-26T05:00:12.045Z,100.00
2022-12-26T05:02:57.150Z,100.00
2022-12-26T05:05:50.008Z,100.00
2022-12-26T05:08:55.133Z,100.00
2022-12-26T05:11:21.898Z,100.00
2022-12-26T05:13:48.474Z,100.00
2022-12-26T05:16:53.501Z,100.00
2022-12-26T05:19:38.559Z,100.00
2022-12-26T05:22:24.203Z,100.00
2022-12-26T05:25:09.868Z,100.00
2022-12-26T05:28:01.357Z,100.00
2022-12-26T05:30:28.119Z,100.00
2022-12-26T05:33:13.227Z,100.00
2022-12-26T05:35:40.320Z,100.00
2022-12-26T05:38:08.490Z,100.00
2022-12-26T05:40:36.102Z,100.00
2022-12-26T05:43:02.634Z,100.00
2022-12-26T05:45:29.126Z,100.00
2022-12-26T05:47:59.648Z,100.00
2022-12-26T05:50:26.117Z,100.00
2022-12-26T05:52:52.572Z,100.00
2022-12-26T05:55:19.085Z,100.00
2022-12-26T05:57:45.516Z,100.00
2022-12-26T06:00:12.349Z,100.00
2022-12-26T06:02:39.020Z,100.00
2022-12-26T06:05:05.756Z,100.00
2022-12-26T06:07:32.239Z,100.00
2022-12-26T06:09:59.100Z,100.00
2022-12-26T06:12:25.542Z,100.00
2022-12-26T06:14:51.981Z,100.00
2022-12-26T06:17:18.480Z,100.00
2022-12-26T06:19:47.069Z,100.00
2022-12-26T06:22:13.764Z,100.00
2022-12-26T06:24:40.401Z,100.00
2022-12-26T06:27:06.888Z,100.00
2022-12-26T06:29:33.431Z,100.00
2022-12-26T06:32:00.024Z,100.00
2022-12-26T06:34:27.829Z,100.00
2022-12-26T06:36:55.595Z,100.00
2022-12-26T06:39:22.970Z,100.00
2022-12-26T06:41:49.477Z,100.00
2022-12-26T06:44:18.540Z,100.00
2022-12-26T06:46:45.663Z,100.00
2022-12-26T06:49:12.159Z,100.00
2022-12-26T06:51:38.634Z,100.00
2022-12-26T06:54:05.223Z,100.00
2022-12-26T06:56:32.445Z,100.00
2022-12-26T06:59:00.350Z,100.00
2022-12-26T07:01:28.483Z,100.00
2022-12-26T07:03:55.832Z,100.00
2022-12-26T07:06:22.301Z,100.00
2022-12-26T07:08:49.175Z,100.00
2022-12-26T07:11:25.886Z,100.00
2022-12-26T07:13:53.374Z,100.00
2022-12-26T07:16:19.903Z,100.00
2022-12-26T07:18:46.412Z,100.00
2022-12-26T07:21:13.929Z,100.00
2022-12-26T07:23:40.417Z,100.00
2022-12-26T07:26:07.250Z,100.00
2022-12-26T07:28:34.004Z,100.00
2022-12-26T07:31:00.968Z,100.00
2022-12-26T07:33:28.358Z,100.00
2022-12-26T07:35:54.929Z,100.00
2022-12-26T07:38:21.343Z,100.00
2022-12-26T07:40:47.842Z,100.00
2022-12-26T07:43:14.344Z,100.00
2022-12-26T07:45:45.492Z,100.00
2022-12-26T07:48:12.512Z,100.00
2022-12-26T07:50:39.049Z,100.00
2022-12-26T07:53:05.495Z,100.00
2022-12-26T07:55:32.004Z,100.00
2022-12-26T07:57:58.554Z,100.00
2022-12-26T08:00:25.063Z,100.00
2022-12-26T08:02:53.186Z,100.00
2022-12-26T08:05:21.085Z,100.00
2022-12-26T08:07:48.494Z,100.00
2022-12-26T08:10:16.123Z,100.00
2022-12-26T08:12:42.613Z,100.00
2022-12-26T08:15:10.123Z,100.00
2022-12-26T08:17:36.612Z,100.00
2022-12-26T08:20:03.277Z,100.00
2022-12-26T08:22:29.838Z,100.00
2022-12-26T08:24:56.320Z,100.00
2022-12-26T08:27:22.983Z,100.00
2022-12-26T08:29:50.493Z,100.00
2022-12-26T08:32:16.937Z,100.00
2022-12-26T08:34:43.437Z,100.00
2022-12-26T08:37:10.143Z,100.00
2022-12-26T08:39:36.584Z,100.00
2022-12-26T08:42:03.120Z,100.00
2022-12-26T08:44:29.656Z,100.00
2022-12-26T08:46:56.112Z,100.00
2022-12-26T08:49:22.588Z,100.00
2022-12-26T08:51:49.036Z,100.00
2022-12-26T08:54:15.464Z,100.00
2022-12-26T08:56:42.069Z,100.00
2022-12-26T08:59:08.524Z,100.00
2022-12-26T09:01:35.050Z,100.00
2022-12-26T09:04:02.804Z,100.00
2022-12-26T09:06:31.533Z,100.00
2022-12-26T09:08:59.285Z,100.00
2022-12-26T09:11:29.260Z,100.00
2022-12-26T09:13:56.581Z,100.00
2022-12-26T09:16:24.792Z,100.00
2022-12-26T09:18:55.922Z,100.00
2022-12-26T09:21:22.529Z,100.00
2022-12-26T09:23:48.994Z,100.00
2022-12-26T09:26:17.188Z,100.00
2022-12-26T09:28:45.708Z,100.00
2022-12-26T09:31:13.611Z,100.00
2022-12-26T09:33:40.469Z,100.00
2022-12-26T09:36:14.795Z,100.00
2022-12-26T09:38:42.529Z,100.00
2022-12-26T09:41:13.260Z,100.00
2022-12-26T09:44:00.006Z,100.00
2022-12-26T09:46:26.460Z,100.00
2022-12-26T09:49:14.079Z,100.00
2022-12-26T09:51:41.862Z,100.00
2022-12-26T09:54:11.890Z,100.00
2022-12-26T09:59:27.119Z,100.00
2022-12-26T10:01:53.822Z,100.00
2022-12-26T10:04:29.862Z,100.00
2022-12-26T10:06:56.791Z,100.00
2022-12-26T10:09:26.271Z,100.00
2022-12-26T10:12:05.112Z,100.00
2022-12-26T10:14:34.743Z,100.00
2022-12-26T10:17:10.466Z,100.00
2022-12-26T10:19:37.894Z,100.00
2022-12-26T10:22:23.116Z,100.00
2022-12-26T10:24:50.245Z,100.00
2022-12-26T10:27:18.029Z,100.00
2022-12-26T10:30:04.367Z,100.00
2022-12-26T10:32:36.662Z,100.00
2022-12-26T10:35:20.707Z,100.00
2022-12-26T10:37:47.808Z,100.00
2022-12-26T10:40:14.287Z,100.00
2022-12-26T10:42:42.651Z,100.00
2022-12-26T10:45:16.656Z,100.00
2022-12-26T10:47:47.011Z,100.00
2022-12-26T10:50:25.410Z,100.00
2022-12-26T10:52:54.240Z,100.00
2022-12-26T10:55:31.564Z,100.00
2022-12-26T10:58:17.154Z,100.00
2022-12-26T11:00:44.200Z,100.00
2022-12-26T11:03:15.755Z,100.00
2022-12-26T11:06:07.644Z,100.00
2022-12-26T11:08:44.190Z,100.00
2022-12-26T11:11:23.774Z,100.00
2022-12-26T11:14:03.101Z,100.00
2022-12-26T11:16:31.747Z,100.00
2022-12-26T11:19:01.403Z,100.00
2022-12-26T11:21:30.674Z,100.00
2022-12-26T11:24:09.962Z,100.00
2022-12-26T11:26:37.771Z,100.00
2022-12-26T11:29:24.447Z,100.00
2022-12-26T11:31:56.506Z,100.00
2022-12-26T11:34:37.869Z,100.00
2022-12-26T11:37:06.868Z,100.00
2022-12-26T11:39:37.181Z,100.00
2022-12-26T11:42:23.826Z,100.00
2022-12-26T11:44:57.394Z,100.00
2022-12-26T11:47:28.435Z,100.00
2022-12-26T11:49:58.300Z,100.00
2022-12-26T11:52:36.378Z,100.00
2022-12-26T11:55:25.273Z,100.00
2022-12-26T11:57:58.894Z,100.00
2022-12-26T12:00:34.481Z,100.00
2022-12-26T12:03:12.760Z,100.00
2022-12-26T12:06:05.580Z,100.00
2022-12-26T12:11:45.697Z,100.00
2022-12-26T12:14:29.310Z,100.00
2022-12-26T12:17:01.165Z,100.00
2022-12-26T12:19:32.135Z,100.00
2022-12-26T12:21:58.592Z,100.00
2022-12-26T12:24:44.422Z,100.00
2022-12-26T12:27:31.492Z,100.00
2022-12-26T12:30:15.208Z,100.00
2022-12-26T12:33:00.935Z,100.00
2022-12-26T12:35:49.010Z,100.00
2022-12-26T12:38:24.885Z,100.00
2022-12-26T12:41:09.364Z,100.00
2022-12-26T12:47:05.350Z,100.00
2022-12-26T12:49:44.653Z,100.00
2022-12-26T12:52:20.477Z,100.00
2022-12-26T12:55:10.245Z,100.00
2022-12-26T12:57:55.270Z,100.00
2022-12-26T13:00:23.680Z,100.00
2022-12-26T13:02:56.311Z,100.00
2022-12-26T13:05:28.931Z,100.00
2022-12-26T13:08:21.791Z,100.00
2022-12-26T13:10:54.816Z,100.00
2022-12-26T13:13:40.375Z,100.00
2022-12-26T13:16:17.434Z,100.00
2022-12-26T13:18:56.286Z,100.00
2022-12-26T13:21:23.032Z,100.00
2022-12-26T13:24:11.115Z,100.00
2022-12-26T13:26:53.584Z,100.00
2022-12-26T13:29:26.211Z,100.00
2022-12-26T13:31:52.837Z,100.00
2022-12-26T13:34:20.225Z,100.00
2022-12-26T13:36:48.324Z,100.00
2022-12-26T13:39:23.965Z,100.00
2022-12-26T13:42:36.251Z,100.00
2022-12-26T13:45:21.245Z,100.00
2022-12-26T13:47:47.767Z,100.00
2022-12-26T13:50:33.090Z,100.00
2022-12-26T13:52:59.721Z,100.00
2022-12-26T13:55:31.666Z,100.00
2022-12-26T13:58:12.541Z,100.00
2022-12-26T14:00:46.277Z,100.00
2022-12-26T14:03:22.079Z,100.00
2022-12-26T14:05:48.743Z,100.00
2022-12-26T14:08:34.457Z,100.00
2022-12-26T14:11:07.097Z,100.00
2022-12-26T14:13:33.761Z,100.00
2022-12-26T14:16:03.238Z,100.00
2022-12-26T14:18:38.674Z,100.00
2022-12-26T14:21:40.971Z,100.00
2022-12-26T14:24:13.344Z,100.00
2022-12-26T14:26:52.008Z,100.00
2022-12-26T14:29:27.285Z,100.00
2022-12-26T14:32:12.589Z,100.00
2022-12-26T14:34:39.003Z,100.00
2022-12-26T14:37:14.537Z,100.00
2022-12-26T14:39:40.981Z,100.00
2022-12-26T14:42:26.382Z,100.00
2022-12-26T14:44:57.264Z,100.00
2022-12-26T14:47:38.759Z,100.00
2022-12-26T14:50:24.201Z,100.00
2022-12-26T14:52:50.892Z,100.00
2022-12-26T14:55:35.887Z,100.00
2022-12-26T14:58:21.149Z,100.00
2022-12-26T15:00:48.309Z,100.00
2022-12-26T15:03:14.744Z,100.00
2022-12-26T15:05:44.636Z,100.00
2022-12-26T15:08:29.875Z,100.00
2022-12-26T15:11:15.106Z,100.00
2022-12-26T15:14:00.075Z,100.00
2022-12-26T15:16:32.570Z,100.00
2022-12-26T15:19:37.736Z,100.00
2022-12-26T15:22:27.424Z,100.00
2022-12-26T15:25:20.645Z,100.00
2022-12-26T15:28:09.445Z,100.00
2022-12-26T15:30:45.758Z,100.00
2022-12-26T15:33:38.761Z,100.00
2022-12-26T15:36:14.356Z,100.00
2022-12-26T15:38:40.898Z,100.00
2022-12-26T15:41:13.529Z,100.00
2022-12-26T15:43:47.494Z,100.00
2022-12-26T15:46:31.111Z,100.00
2022-12-26T15:49:16.230Z,100.00
2022-12-26T15:52:01.398Z,100.00
2022-12-26T15:54:27.872Z,100.00
2022-12-26T15:57:03.609Z,100.00
2022-12-26T15:59:43.273Z,100.00
2022-12-26T16:02:14.124Z,100.00
2022-12-26T16:04:52.702Z,100.00
2022-12-26T16:07:34.667Z,100.00
2022-12-26T16:10:01.774Z,100.00
2022-12-26T16:12:29.958Z,100.00
2022-12-26T16:15:15.164Z,100.00
2022-12-26T16:17:42.104Z,100.00
2022-12-26T16:20:43.706Z,100.00
2022-12-26T16:23:21.908Z,100.00
2022-12-26T16:25:49.457Z,100.00
2022-12-26T16:28:22.920Z,100.00
2022-12-26T16:30:54.144Z,100.00
2022-12-26T16:33:21.180Z,100.00
2022-12-26T16:35:51.629Z,100.00
2022-12-26T16:38:27.931Z,100.00
2022-12-26T16:40:56.833Z,100.00
2022-12-26T16:43:27.470Z,100.00
2022-12-26T16:46:00.803Z,100.00
2022-12-26T16:48:29.345Z,100.00
2022-12-26T16:50:57.458Z,100.00
2022-12-26T16:53:27.789Z,100.00
2022-12-26T16:55:56.925Z,100.00
2022-12-26T16:58:27.026Z,100.00
2022-12-26T17:01:13.738Z,100.00
2022-12-26T17:03:55.865Z,100.00
2022-12-26T17:06:26.512Z,100.00
2022-12-26T17:08:57.114Z,100.00
2022-12-26T17:11:32.440Z,100.00
2022-12-26T17:14:00.118Z,100.00
2022-12-26T17:16:28.536Z,100.00
2022-12-26T17:18:56.092Z,100.00
2022-12-26T17:21:22.547Z,100.00
2022-12-26T17:24:04.059Z,100.00
2022-12-26T17:26:40.823Z,100.00
2022-12-26T17:29:27.256Z,100.00
2022-12-26T17:31:53.933Z,100.00
2022-12-26T17:34:25.369Z,100.00
2022-12-26T17:37:18.438Z,100.00
2022-12-26T17:39:39.064Z,100.00
2022-12-26T17:42:06.161Z,100.00
2022-12-26T17:44:34.265Z,100.00
2022-12-26T17:47:12.563Z,100.00
2022-12-26T17:49:39.269Z,100.00
2022-12-26T17:52:05.929Z,100.00
2022-12-26T17:54:32.602Z,100.00
2022-12-26T17:57:00.853Z,100.00
2022-12-26T17:59:27.559Z,100.00
2022-12-26T18:01:54.198Z,100.00
2022-12-26T18:04:20.732Z,100.00
2022-12-26T18:06:47.365Z,100.00
2022-12-26T18:09:24.057Z,100.00
2022-12-26T18:11:50.729Z,100.00
2022-12-26T18:14:17.767Z,100.00
2022-12-26T18:16:44.334Z,100.00
2022-12-26T18:19:15.290Z,100.00
2022-12-26T18:21:41.934Z,100.00
2022-12-26T18:24:08.786Z,100.00
2022-12-26T18:26:35.631Z,100.00
2022-12-26T18:29:02.484Z,100.00
2022-12-26T18:31:29.271Z,100.00
2022-12-26T18:33:55.917Z,100.00
2022-12-26T18:36:25.848Z,100.00
2022-12-26T18:38:52.496Z,100.00
2022-12-26T18:41:19.720Z,100.00
2022-12-26T18:43:46.452Z,100.00
2022-12-26T18:46:19.997Z,100.00
2022-12-26T18:48:46.894Z,100.00
2022-12-26T18:51:13.410Z,100.00
2022-12-26T18:53:40.056Z,100.00
2022-12-26T18:56:07.045Z,100.00
2022-12-26T18:58:33.622Z,100.00
2022-12-26T19:01:02.707Z,100.00
2022-12-26T19:03:29.499Z,100.00
2022-12-26T19:05:56.307Z,100.00
2022-12-26T19:08:22.821Z,100.00
2022-12-26T19:10:49.328Z,100.00
2022-12-26T19:13:15.961Z,100.00
2022-12-26T19:15:45.196Z,100.00
2022-12-26T19:18:11.778Z,100.00
2022-12-26T19:20:43.968Z,100.00
2022-12-26T19:23:11.237Z,100.00
2022-12-26T19:25:38.020Z,100.00
2022-12-26T19:28:04.701Z,100.00
2022-12-26T19:30:35.248Z,100.00
2022-12-26T19:33:05.375Z,100.00
2022-12-26T19:35:32.099Z,100.00
2022-12-26T19:37:58.943Z,100.00
2022-12-26T19:40:25.573Z,100.00
2022-12-26T19:42:52.709Z,100.00
2022-12-26T19:45:19.407Z,100.00
2022-12-26T19:47:46.932Z,100.00
2022-12-26T19:50:13.959Z,100.00
2022-12-26T19:52:41.382Z,100.00
2022-12-26T19:55:08.748Z,100.00
2022-12-26T19:57:35.291Z,100.00
2022-12-26T20:00:02.003Z,100.00
2022-12-26T20:02:28.811Z,100.00
2022-12-26T20:04:55.540Z,100.00
2022-12-26T20:07:22.015Z,100.00
2022-12-26T20:09:48.661Z,100.00
2022-12-26T20:12:15.143Z,100.00
2022-12-26T20:14:41.615Z,100.00
2022-12-26T20:17:09.535Z,100.00
2022-12-26T20:19:36.652Z,100.00
2022-12-26T20:22:03.604Z,100.00
2022-12-26T20:24:30.191Z,100.00
2022-12-26T20:26:56.728Z,100.00
2022-12-26T20:29:23.287Z,100.00
2022-12-26T20:31:50.029Z,100.00
2022-12-26T20:34:16.625Z,100.00
2022-12-26T20:36:43.156Z,100.00
2022-12-26T20:39:14.728Z,100.00
2022-12-26T20:41:41.459Z,100.00
2022-12-26T20:44:08.004Z,100.00
2022-12-26T20:46:35.271Z,100.00
2022-12-26T20:49:02.630Z,100.00
2022-12-26T20:51:36.860Z,100.00
2022-12-26T20:54:05.325Z,100.00
2022-12-26T20:56:31.948Z,100.00
2022-12-26T20:58:59.773Z,100.00
2022-12-26T21:01:26.770Z,100.00
2022-12-26T21:03:54.096Z,100.00
2022-12-26T21:06:22.237Z,100.00
2022-12-26T21:08:49.684Z,100.00
2022-12-26T21:11:17.651Z,100.00
2022-12-26T21:13:45.034Z,100.00
2022-12-26T21:16:11.499Z,100.00
2022-12-26T21:18:38.313Z,100.00
2022-12-26T21:21:09.291Z,100.00
2022-12-26T21:23:36.491Z,100.00
2022-12-26T21:26:03.234Z,100.00
2022-12-26T21:28:30.175Z,100.00
2022-12-26T21:30:57.028Z,100.00
2022-12-26T21:33:23.646Z,100.00
2022-12-26T21:35:53.252Z,100.00
2022-12-26T21:38:23.953Z,100.00
2022-12-26T21:40:50.890Z,100.00
2022-12-26T21:43:17.409Z,100.00
2022-12-26T21:45:44.031Z,100.00
2022-12-26T21:48:10.809Z,100.00
2022-12-26T21:50:37.278Z,100.00
2022-12-26T21:53:04.029Z,100.00
2022-12-26T21:55:31.299Z,100.00
2022-12-26T21:57:59.559Z,100.00
2022-12-26T22:00:26.513Z,100.00
2022-12-26T22:03:11.774Z,100.00
2022-12-26T22:05:39.682Z,100.00
2022-12-26T22:08:11.223Z,100.00
2022-12-26T22:11:08.907Z,100.00
2022-12-26T22:13:41.887Z,100.00
2022-12-26T22:16:09.702Z,100.00
2022-12-26T22:18:37.808Z,100.00
2022-12-26T22:21:20.970Z,100.00
2022-12-26T22:23:50.465Z,100.00
2022-12-26T22:26:17.517Z,100.00
2022-12-26T22:28:44.721Z,98.32
2022-12-26T22:31:26.589Z,98.03
2022-12-26T22:34:00.935Z,93.74
2022-12-26T22:36:30.693Z,94.49
2022-12-26T22:38:58.104Z,91.15
2022-12-26T22:41:28.887Z,91.62
2022-12-26T22:43:55.809Z,92.47
2022-12-26T22:46:22.753Z,93.09
2022-12-26T22:48:49.300Z,94.35
2022-12-26T22:51:17.027Z,94.12
2022-12-26T22:53:43.654Z,90.81
2022-12-26T22:56:11.631Z,89.86
2022-12-26T22:58:38.276Z,92.79
2022-12-26T23:01:11.636Z,93.21
2022-12-26T23:03:38.236Z,95.12
2022-12-26T23:06:15.245Z,92.40
2022-12-26T23:08:41.858Z,91.30
2022-12-26T23:11:08.563Z,94.00
2022-12-26T23:13:35.101Z,92.04
2022-12-26T23:16:10.777Z,93.74
2022-12-26T23:19:25.297Z,91.25
2022-12-26T23:21:52.074Z,96.05
2022-12-26T23:24:23.097Z,94.57
2022-12-26T23:26:51.120Z,93.24
2022-12-26T23:29:37.488Z,94.36
2022-12-26T23:32:04.554Z,97.11
2022-12-26T23:34:31.023Z,92.99
2022-12-26T23:36:57.477Z,92.30
2022-12-26T23:39:24.128Z,96.30
2022-12-26T23:41:50.667Z,91.37
2022-12-26T23:44:17.370Z,93.81
2022-12-26T23:46:44.645Z,93.50
2022-12-26T23:49:12.522Z,93.69
2022-12-26T23:51:39.182Z,93.63
2022-12-26T23:54:05.763Z,95.60
2022-12-26T23:56:32.498Z,93.03
2022-12-26T23:58:59.025Z,93.46
